sensor_id;sensor_type;location;lat;lon;timestamp;P1;durP1;ratioP1;P2;durP2;ratioP2
50012;SDS011;35901;48.694;9.476;2022-07-24T00:01:46;18.50;;;16.80;;
50012;SDS011;35901;48.694;9.476;2022-07-24T00:04:13;17.17;;;15.63;;
50012;SDS011;35901;48.694;9.476;2022-07-24T00:06:39;18.13;;;16.60;;
50012;SDS011;35901;48.694;9.476;2022-07-24T00:09:06;18.13;;;16.53;;
50012;SDS011;35901;48.694;9.476;2022-07-24T00:11:34;18.00;;;16.50;;
50012;SDS011;35901;48.694;9.476;2022-07-24T00:14:00;18.33;;;16.73;;
50012;SDS011;35901;48.694;9.476;2022-07-24T00:16:26;18.27;;;16.57;;
50012;SDS011;35901;48.694;9.476;2022-07-24T00:18:52;17.10;;;15.53;;
50012;SDS011;35901;48.694;9.476;2022-07-24T00:21:17;19.60;;;17.80;;
50012;SDS011;35901;48.694;9.476;2022-07-24T00:23:43;17.80;;;16.30;;
50012;SDS011;35901;48.694;9.476;2022-07-24T00:26:09;18.40;;;16.77;;
50012;SDS011;35901;48.694;9.476;2022-07-24T00:28:36;21.30;;;19.30;;
50012;SDS011;35901;48.694;9.476;2022-07-24T00:31:02;20.20;;;18.50;;
50012;SDS011;35901;48.694;9.476;2022-07-24T00:33:27;21.43;;;19.60;;
50012;SDS011;35901;48.694;9.476;2022-07-24T00:35:54;21.73;;;19.77;;
50012;SDS011;35901;48.694;9.476;2022-07-24T00:38:19;22.60;;;20.50;;
50012;SDS011;35901;48.694;9.476;2022-07-24T00:40:45;21.40;;;19.40;;
50012;SDS011;35901;48.694;9.476;2022-07-24T00:43:11;21.47;;;19.40;;
50012;SDS011;35901;48.694;9.476;2022-07-24T00:45:38;21.37;;;19.57;;
50012;SDS011;35901;48.694;9.476;2022-07-24T00:48:07;19.10;;;17.43;;
50012;SDS011;35901;48.694;9.476;2022-07-24T00:50:46;21.23;;;19.23;;
50012;SDS011;35901;48.694;9.476;2022-07-24T00:53:12;20.83;;;19.03;;
50012;SDS011;35901;48.694;9.476;2022-07-24T00:55:40;20.23;;;18.47;;
50012;SDS011;35901;48.694;9.476;2022-07-24T00:58:14;21.47;;;19.47;;
50012;SDS011;35901;48.694;9.476;2022-07-24T01:00:43;21.93;;;20.00;;
50012;SDS011;35901;48.694;9.476;2022-07-24T01:03:13;21.63;;;19.57;;
50012;SDS011;35901;48.694;9.476;2022-07-24T01:05:40;19.13;;;17.43;;
50012;SDS011;35901;48.694;9.476;2022-07-24T01:08:06;22.27;;;20.17;;
50012;SDS011;35901;48.694;9.476;2022-07-24T01:10:32;23.53;;;21.40;;
50012;SDS011;35901;48.694;9.476;2022-07-24T01:12:58;23.57;;;21.43;;
50012;SDS011;35901;48.694;9.476;2022-07-24T01:15:24;23.23;;;21.23;;
50012;SDS011;35901;48.694;9.476;2022-07-24T01:17:51;24.00;;;21.50;;
50012;SDS011;35901;48.694;9.476;2022-07-24T01:20:17;23.37;;;21.07;;
50012;SDS011;35901;48.694;9.476;2022-07-24T01:22:44;23.43;;;21.20;;
50012;SDS011;35901;48.694;9.476;2022-07-24T01:25:10;21.80;;;19.83;;
50012;SDS011;35901;48.694;9.476;2022-07-24T01:27:36;21.03;;;19.03;;
50012;SDS011;35901;48.694;9.476;2022-07-24T01:30:02;20.53;;;18.63;;
50012;SDS011;35901;48.694;9.476;2022-07-24T01:32:28;23.80;;;21.60;;
50012;SDS011;35901;48.694;9.476;2022-07-24T01:34:54;22.57;;;20.37;;
50012;SDS011;35901;48.694;9.476;2022-07-24T01:37:20;22.03;;;20.13;;
50012;SDS011;35901;48.694;9.476;2022-07-24T01:39:52;20.37;;;18.47;;
50012;SDS011;35901;48.694;9.476;2022-07-24T01:42:19;20.80;;;18.90;;
50012;SDS011;35901;48.694;9.476;2022-07-24T01:44:46;20.50;;;18.60;;
50012;SDS011;35901;48.694;9.476;2022-07-24T01:47:13;24.20;;;22.00;;
50012;SDS011;35901;48.694;9.476;2022-07-24T01:49:42;24.33;;;22.13;;
50012;SDS011;35901;48.694;9.476;2022-07-24T01:52:12;26.70;;;24.10;;
50012;SDS011;35901;48.694;9.476;2022-07-24T01:54:39;23.60;;;21.50;;
50012;SDS011;35901;48.694;9.476;2022-07-24T01:57:05;25.00;;;22.50;;
50012;SDS011;35901;48.694;9.476;2022-07-24T01:59:36;25.70;;;23.30;;
50012;SDS011;35901;48.694;9.476;2022-07-24T02:02:03;26.17;;;23.67;;
50012;SDS011;35901;48.694;9.476;2022-07-24T02:04:29;27.10;;;24.77;;
50012;SDS011;35901;48.694;9.476;2022-07-24T02:06:56;26.13;;;23.63;;
50012;SDS011;35901;48.694;9.476;2022-07-24T02:09:22;25.57;;;23.23;;
50012;SDS011;35901;48.694;9.476;2022-07-24T02:11:48;25.50;;;23.23;;
50012;SDS011;35901;48.694;9.476;2022-07-24T02:14:18;26.33;;;23.87;;
50012;SDS011;35901;48.694;9.476;2022-07-24T02:16:45;25.10;;;22.73;;
50012;SDS011;35901;48.694;9.476;2022-07-24T02:19:12;23.40;;;21.30;;
50012;SDS011;35901;48.694;9.476;2022-07-24T02:21:47;25.03;;;22.67;;
50012;SDS011;35901;48.694;9.476;2022-07-24T02:24:13;24.93;;;22.63;;
50012;SDS011;35901;48.694;9.476;2022-07-24T02:26:39;25.47;;;23.23;;
50012;SDS011;35901;48.694;9.476;2022-07-24T02:29:05;27.93;;;25.13;;
50012;SDS011;35901;48.694;9.476;2022-07-24T02:31:31;28.47;;;25.70;;
50012;SDS011;35901;48.694;9.476;2022-07-24T02:33:57;28.23;;;25.53;;
50012;SDS011;35901;48.694;9.476;2022-07-24T02:36:24;24.63;;;22.20;;
50012;SDS011;35901;48.694;9.476;2022-07-24T02:38:50;27.63;;;25.13;;
50012;SDS011;35901;48.694;9.476;2022-07-24T02:41:17;28.80;;;26.00;;
50012;SDS011;35901;48.694;9.476;2022-07-24T02:43:43;28.27;;;25.47;;
50012;SDS011;35901;48.694;9.476;2022-07-24T02:46:09;26.40;;;23.80;;
50012;SDS011;35901;48.694;9.476;2022-07-24T02:48:35;26.27;;;23.77;;
50012;SDS011;35901;48.694;9.476;2022-07-24T02:51:02;28.13;;;25.53;;
50012;SDS011;35901;48.694;9.476;2022-07-24T02:53:29;25.33;;;22.93;;
50012;SDS011;35901;48.694;9.476;2022-07-24T02:55:55;26.07;;;23.50;;
50012;SDS011;35901;48.694;9.476;2022-07-24T02:58:27;27.00;;;24.40;;
50012;SDS011;35901;48.694;9.476;2022-07-24T03:00:54;26.73;;;24.33;;
50012;SDS011;35901;48.694;9.476;2022-07-24T03:03:20;26.97;;;24.57;;
50012;SDS011;35901;48.694;9.476;2022-07-24T03:05:50;26.90;;;24.33;;
50012;SDS011;35901;48.694;9.476;2022-07-24T03:08:16;33.43;;;29.97;;
50012;SDS011;35901;48.694;9.476;2022-07-24T03:10:42;34.03;;;30.60;;
50012;SDS011;35901;48.694;9.476;2022-07-24T03:13:08;33.07;;;29.80;;
50012;SDS011;35901;48.694;9.476;2022-07-24T03:15:34;31.80;;;28.60;;
50012;SDS011;35901;48.694;9.476;2022-07-24T03:17:59;32.70;;;29.30;;
50012;SDS011;35901;48.694;9.476;2022-07-24T03:20:26;32.20;;;28.80;;
50012;SDS011;35901;48.694;9.476;2022-07-24T03:22:54;29.07;;;26.17;;
50012;SDS011;35901;48.694;9.476;2022-07-24T03:25:21;27.90;;;25.23;;
50012;SDS011;35901;48.694;9.476;2022-07-24T03:27:49;24.93;;;22.63;;
50012;SDS011;35901;48.694;9.476;2022-07-24T03:30:16;26.23;;;23.63;;
50012;SDS011;35901;48.694;9.476;2022-07-24T03:32:43;24.10;;;21.87;;
50012;SDS011;35901;48.694;9.476;2022-07-24T03:35:09;26.60;;;24.00;;
50012;SDS011;35901;48.694;9.476;2022-07-24T03:37:42;25.17;;;22.63;;
50012;SDS011;35901;48.694;9.476;2022-07-24T03:40:08;23.57;;;21.43;;
50012;SDS011;35901;48.694;9.476;2022-07-24T03:42:35;26.03;;;23.63;;
50012;SDS011;35901;48.694;9.476;2022-07-24T03:45:01;27.43;;;24.73;;
50012;SDS011;35901;48.694;9.476;2022-07-24T03:47:28;27.27;;;24.57;;
50012;SDS011;35901;48.694;9.476;2022-07-24T03:49:54;27.17;;;24.57;;
50012;SDS011;35901;48.694;9.476;2022-07-24T03:52:20;30.87;;;27.97;;
50012;SDS011;35901;48.694;9.476;2022-07-24T03:54:50;31.13;;;28.03;;
50012;SDS011;35901;48.694;9.476;2022-07-24T03:57:17;31.47;;;28.40;;
50012;SDS011;35901;48.694;9.476;2022-07-24T03:59:43;32.30;;;29.30;;
50012;SDS011;35901;48.694;9.476;2022-07-24T04:02:09;32.13;;;28.97;;
50012;SDS011;35901;48.694;9.476;2022-07-24T04:04:35;33.03;;;29.50;;
50012;SDS011;35901;48.694;9.476;2022-07-24T04:07:10;34.37;;;30.97;;
50012;SDS011;35901;48.694;9.476;2022-07-24T04:09:36;34.00;;;30.67;;
50012;SDS011;35901;48.694;9.476;2022-07-24T04:12:02;30.67;;;27.73;;
50012;SDS011;35901;48.694;9.476;2022-07-24T04:14:29;27.43;;;24.67;;
50012;SDS011;35901;48.694;9.476;2022-07-24T04:16:55;23.77;;;21.57;;
50012;SDS011;35901;48.694;9.476;2022-07-24T04:19:22;27.20;;;24.37;;
50012;SDS011;35901;48.694;9.476;2022-07-24T04:21:48;29.27;;;26.37;;
50012;SDS011;35901;48.694;9.476;2022-07-24T04:24:14;28.57;;;25.97;;
50012;SDS011;35901;48.694;9.476;2022-07-24T04:26:41;29.47;;;26.67;;
50012;SDS011;35901;48.694;9.476;2022-07-24T04:29:07;29.07;;;26.20;;
50012;SDS011;35901;48.694;9.476;2022-07-24T04:31:34;33.03;;;29.73;;
50012;SDS011;35901;48.694;9.476;2022-07-24T04:34:00;34.57;;;31.10;;
50012;SDS011;35901;48.694;9.476;2022-07-24T04:36:27;31.27;;;28.17;;
50012;SDS011;35901;48.694;9.476;2022-07-24T04:38:53;28.53;;;25.93;;
50012;SDS011;35901;48.694;9.476;2022-07-24T04:41:19;30.03;;;27.23;;
50012;SDS011;35901;48.694;9.476;2022-07-24T04:43:46;27.57;;;24.87;;
50012;SDS011;35901;48.694;9.476;2022-07-24T04:46:13;23.80;;;21.63;;
50012;SDS011;35901;48.694;9.476;2022-07-24T04:48:40;22.73;;;20.77;;
50012;SDS011;35901;48.694;9.476;2022-07-24T04:51:06;21.90;;;19.93;;
50012;SDS011;35901;48.694;9.476;2022-07-24T04:53:32;19.70;;;17.90;;
50012;SDS011;35901;48.694;9.476;2022-07-24T04:55:59;18.30;;;16.67;;
50012;SDS011;35901;48.694;9.476;2022-07-24T04:58:25;17.53;;;16.03;;
50012;SDS011;35901;48.694;9.476;2022-07-24T05:00:51;15.93;;;14.60;;
50012;SDS011;35901;48.694;9.476;2022-07-24T05:03:17;16.13;;;14.83;;
50012;SDS011;35901;48.694;9.476;2022-07-24T05:05:43;14.83;;;13.43;;
50012;SDS011;35901;48.694;9.476;2022-07-24T05:08:09;15.00;;;13.70;;
50012;SDS011;35901;48.694;9.476;2022-07-24T05:10:35;14.97;;;13.77;;
50012;SDS011;35901;48.694;9.476;2022-07-24T05:13:01;15.93;;;14.63;;
50012;SDS011;35901;48.694;9.476;2022-07-24T05:15:26;14.20;;;12.90;;
50012;SDS011;35901;48.694;9.476;2022-07-24T05:17:52;16.40;;;15.07;;
50012;SDS011;35901;48.694;9.476;2022-07-24T05:20:18;16.30;;;14.83;;
50012;SDS011;35901;48.694;9.476;2022-07-24T05:22:45;15.20;;;13.83;;
50012;SDS011;35901;48.694;9.476;2022-07-24T05:25:11;16.83;;;15.43;;
50012;SDS011;35901;48.694;9.476;2022-07-24T05:27:37;14.53;;;13.43;;
50012;SDS011;35901;48.694;9.476;2022-07-24T05:30:03;15.17;;;13.90;;
50012;SDS011;35901;48.694;9.476;2022-07-24T05:32:30;13.73;;;12.63;;
50012;SDS011;35901;48.694;9.476;2022-07-24T05:34:57;13.30;;;12.20;;
50012;SDS011;35901;48.694;9.476;2022-07-24T05:37:23;13.60;;;12.40;;
50012;SDS011;35901;48.694;9.476;2022-07-24T05:39:49;13.00;;;11.87;;
50012;SDS011;35901;48.694;9.476;2022-07-24T05:42:16;13.07;;;11.97;;
50012;SDS011;35901;48.694;9.476;2022-07-24T05:44:43;12.17;;;11.27;;
50012;SDS011;35901;48.694;9.476;2022-07-24T05:47:09;12.93;;;11.83;;
50012;SDS011;35901;48.694;9.476;2022-07-24T05:49:35;12.00;;;11.00;;
50012;SDS011;35901;48.694;9.476;2022-07-24T05:52:01;11.77;;;10.87;;
50012;SDS011;35901;48.694;9.476;2022-07-24T05:54:28;11.53;;;10.73;;
50012;SDS011;35901;48.694;9.476;2022-07-24T05:56:54;11.77;;;10.77;;
50012;SDS011;35901;48.694;9.476;2022-07-24T05:59:19;11.90;;;10.90;;
50012;SDS011;35901;48.694;9.476;2022-07-24T06:01:45;12.47;;;11.37;;
50012;SDS011;35901;48.694;9.476;2022-07-24T06:04:11;11.27;;;10.43;;
50012;SDS011;35901;48.694;9.476;2022-07-24T06:06:38;11.80;;;10.77;;
50012;SDS011;35901;48.694;9.476;2022-07-24T06:09:04;11.13;;;10.23;;
50012;SDS011;35901;48.694;9.476;2022-07-24T06:11:30;11.33;;;10.33;;
50012;SDS011;35901;48.694;9.476;2022-07-24T06:13:56;11.30;;;10.30;;
50012;SDS011;35901;48.694;9.476;2022-07-24T06:16:22;10.80;;;10.00;;
50012;SDS011;35901;48.694;9.476;2022-07-24T06:18:47;11.60;;;10.70;;
50012;SDS011;35901;48.694;9.476;2022-07-24T06:21:13;11.60;;;10.70;;
50012;SDS011;35901;48.694;9.476;2022-07-24T06:23:38;11.13;;;10.23;;
50012;SDS011;35901;48.694;9.476;2022-07-24T06:26:04;11.10;;;10.17;;
50012;SDS011;35901;48.694;9.476;2022-07-24T06:28:30;11.40;;;10.60;;
50012;SDS011;35901;48.694;9.476;2022-07-24T06:30:56;11.23;;;10.23;;
50012;SDS011;35901;48.694;9.476;2022-07-24T06:33:22;10.77;;;9.90;;
50012;SDS011;35901;48.694;9.476;2022-07-24T06:35:48;11.10;;;10.20;;
50012;SDS011;35901;48.694;9.476;2022-07-24T06:38:13;9.97;;;9.17;;
50012;SDS011;35901;48.694;9.476;2022-07-24T06:40:41;11.10;;;10.20;;
50012;SDS011;35901;48.694;9.476;2022-07-24T06:43:12;10.90;;;9.93;;
50012;SDS011;35901;48.694;9.476;2022-07-24T06:45:38;10.03;;;9.23;;
50012;SDS011;35901;48.694;9.476;2022-07-24T06:48:04;9.33;;;8.63;;
50012;SDS011;35901;48.694;9.476;2022-07-24T06:50:30;9.20;;;8.40;;
50012;SDS011;35901;48.694;9.476;2022-07-24T06:52:55;10.00;;;9.30;;
50012;SDS011;35901;48.694;9.476;2022-07-24T06:55:21;10.63;;;9.63;;
50012;SDS011;35901;48.694;9.476;2022-07-24T06:57:47;10.17;;;9.23;;
50012;SDS011;35901;48.694;9.476;2022-07-24T07:00:13;9.47;;;8.73;;
50012;SDS011;35901;48.694;9.476;2022-07-24T07:02:39;11.07;;;10.17;;
50012;SDS011;35901;48.694;9.476;2022-07-24T07:05:05;10.70;;;9.70;;
50012;SDS011;35901;48.694;9.476;2022-07-24T07:07:32;10.47;;;9.57;;
50012;SDS011;35901;48.694;9.476;2022-07-24T07:09:58;10.80;;;10.00;;
50012;SDS011;35901;48.694;9.476;2022-07-24T07:12:24;10.80;;;9.90;;
50012;SDS011;35901;48.694;9.476;2022-07-24T07:14:51;10.60;;;9.70;;
50012;SDS011;35901;48.694;9.476;2022-07-24T07:17:17;10.43;;;9.53;;
50012;SDS011;35901;48.694;9.476;2022-07-24T07:19:43;9.30;;;8.60;;
50012;SDS011;35901;48.694;9.476;2022-07-24T07:22:09;8.97;;;8.27;;
50012;SDS011;35901;48.694;9.476;2022-07-24T07:24:35;9.23;;;8.53;;
50012;SDS011;35901;48.694;9.476;2022-07-24T07:27:01;9.37;;;8.00;;
50012;SDS011;35901;48.694;9.476;2022-07-24T07:29:27;8.73;;;8.03;;
50012;SDS011;35901;48.694;9.476;2022-07-24T07:31:53;9.93;;;9.03;;
50012;SDS011;35901;48.694;9.476;2022-07-24T07:34:18;9.97;;;9.13;;
50012;SDS011;35901;48.694;9.476;2022-07-24T07:36:44;8.97;;;8.27;;
50012;SDS011;35901;48.694;9.476;2022-07-24T07:39:10;8.33;;;7.73;;
50012;SDS011;35901;48.694;9.476;2022-07-24T07:41:36;7.50;;;6.90;;
50012;SDS011;35901;48.694;9.476;2022-07-24T07:44:01;7.70;;;7.03;;
50012;SDS011;35901;48.694;9.476;2022-07-24T07:46:28;7.40;;;6.80;;
50012;SDS011;35901;48.694;9.476;2022-07-24T07:48:54;7.20;;;6.60;;
50012;SDS011;35901;48.694;9.476;2022-07-24T07:51:20;7.75;;;7.15;;
50012;SDS011;35901;48.694;9.476;2022-07-24T07:53:46;7.90;;;7.27;;
50012;SDS011;35901;48.694;9.476;2022-07-24T07:56:12;7.93;;;7.43;;
50012;SDS011;35901;48.694;9.476;2022-07-24T07:58:38;7.47;;;6.87;;
50012;SDS011;35901;48.694;9.476;2022-07-24T08:01:04;7.60;;;7.00;;
50012;SDS011;35901;48.694;9.476;2022-07-24T08:03:29;8.10;;;7.40;;
50012;SDS011;35901;48.694;9.476;2022-07-24T08:05:55;8.03;;;7.33;;
50012;SDS011;35901;48.694;9.476;2022-07-24T08:08:21;8.10;;;7.50;;
50012;SDS011;35901;48.694;9.476;2022-07-24T08:10:47;8.60;;;8.00;;
50012;SDS011;35901;48.694;9.476;2022-07-24T08:13:12;8.57;;;7.87;;
50012;SDS011;35901;48.694;9.476;2022-07-24T08:15:40;8.33;;;7.67;;
50012;SDS011;35901;48.694;9.476;2022-07-24T08:18:06;8.00;;;7.37;;
50012;SDS011;35901;48.694;9.476;2022-07-24T08:20:32;8.70;;;7.90;;
50012;SDS011;35901;48.694;9.476;2022-07-24T08:22:58;7.47;;;6.90;;
50012;SDS011;35901;48.694;9.476;2022-07-24T08:25:24;8.85;;;7.95;;
50012;SDS011;35901;48.694;9.476;2022-07-24T08:27:51;8.57;;;7.78;;
50012;SDS011;35901;48.694;9.476;2022-07-24T08:30:16;7.97;;;7.35;;
50012;SDS011;35901;48.694;9.476;2022-07-24T08:32:42;8.65;;;8.00;;
50012;SDS011;35901;48.694;9.476;2022-07-24T08:35:09;8.52;;;7.93;;
50012;SDS011;35901;48.694;9.476;2022-07-24T08:37:36;8.07;;;7.40;;
50012;SDS011;35901;48.694;9.476;2022-07-24T08:40:06;7.63;;;7.03;;
50012;SDS011;35901;48.694;9.476;2022-07-24T08:42:34;7.28;;;6.57;;
50012;SDS011;35901;48.694;9.476;2022-07-24T08:45:00;7.90;;;7.20;;
50012;SDS011;35901;48.694;9.476;2022-07-24T08:47:27;7.68;;;6.97;;
50012;SDS011;35901;48.694;9.476;2022-07-24T08:49:54;8.60;;;7.80;;
50012;SDS011;35901;48.694;9.476;2022-07-24T08:52:23;7.97;;;7.28;;
50012;SDS011;35901;48.694;9.476;2022-07-24T08:54:50;8.07;;;7.47;;
50012;SDS011;35901;48.694;9.476;2022-07-24T08:57:16;8.07;;;7.38;;
50012;SDS011;35901;48.694;9.476;2022-07-24T08:59:41;7.72;;;7.13;;
50012;SDS011;35901;48.694;9.476;2022-07-24T09:02:07;7.38;;;6.78;;
50012;SDS011;35901;48.694;9.476;2022-07-24T09:04:37;7.10;;;6.60;;
50012;SDS011;35901;48.694;9.476;2022-07-24T09:07:09;7.50;;;6.90;;
50012;SDS011;35901;48.694;9.476;2022-07-24T09:09:38;6.97;;;6.47;;
50012;SDS011;35901;48.694;9.476;2022-07-24T09:12:06;7.88;;;7.18;;
50012;SDS011;35901;48.694;9.476;2022-07-24T09:14:46;7.60;;;6.85;;
50012;SDS011;35901;48.694;9.476;2022-07-24T09:17:19;7.35;;;6.65;;
50012;SDS011;35901;48.694;9.476;2022-07-24T09:25:14;6.55;;;6.00;;
50012;SDS011;35901;48.694;9.476;2022-07-24T09:27:56;8.20;;;7.50;;
50012;SDS011;35901;48.694;9.476;2022-07-24T09:32:53;8.10;;;7.40;;
50012;SDS011;35901;48.694;9.476;2022-07-24T09:35:24;8.35;;;7.65;;
50012;SDS011;35901;48.694;9.476;2022-07-24T09:37:59;7.53;;;7.03;;
50012;SDS011;35901;48.694;9.476;2022-07-24T09:40:30;8.27;;;7.45;;
50012;SDS011;35901;48.694;9.476;2022-07-24T09:45:52;7.68;;;7.07;;
50012;SDS011;35901;48.694;9.476;2022-07-24T09:48:20;7.15;;;6.65;;
50012;SDS011;35901;48.694;9.476;2022-07-24T09:50:51;7.82;;;7.03;;
50012;SDS011;35901;48.694;9.476;2022-07-24T09:53:18;7.22;;;6.53;;
50012;SDS011;35901;48.694;9.476;2022-07-24T09:55:55;7.50;;;7.00;;
50012;SDS011;35901;48.694;9.476;2022-07-24T09:58:29;7.78;;;7.18;;
50012;SDS011;35901;48.694;9.476;2022-07-24T10:00:57;7.75;;;7.10;;
50012;SDS011;35901;48.694;9.476;2022-07-24T10:03:26;7.13;;;6.43;;
50012;SDS011;35901;48.694;9.476;2022-07-24T10:05:55;8.00;;;7.30;;
50012;SDS011;35901;48.694;9.476;2022-07-24T10:08:26;7.63;;;7.03;;
50012;SDS011;35901;48.694;9.476;2022-07-24T10:10:52;7.07;;;6.57;;
50012;SDS011;35901;48.694;9.476;2022-07-24T10:13:19;7.35;;;6.78;;
50012;SDS011;35901;48.694;9.476;2022-07-24T10:15:50;7.82;;;7.13;;
50012;SDS011;35901;48.694;9.476;2022-07-24T10:18:16;6.88;;;6.38;;
50012;SDS011;35901;48.694;9.476;2022-07-24T10:20:44;8.23;;;7.43;;
50012;SDS011;35901;48.694;9.476;2022-07-24T10:23:29;7.55;;;6.95;;
50012;SDS011;35901;48.694;9.476;2022-07-24T10:26:16;7.35;;;6.85;;
50012;SDS011;35901;48.694;9.476;2022-07-24T10:29:10;7.72;;;7.13;;
50012;SDS011;35901;48.694;9.476;2022-07-24T10:31:38;8.05;;;7.30;;
50012;SDS011;35901;48.694;9.476;2022-07-24T10:40:21;6.60;;;6.20;;
50012;SDS011;35901;48.694;9.476;2022-07-24T10:42:28;7.78;;;7.13;;
50012;SDS011;35901;48.694;9.476;2022-07-24T10:45:14;6.90;;;6.40;;
50012;SDS011;35901;48.694;9.476;2022-07-24T10:47:43;7.68;;;6.97;;
50012;SDS011;35901;48.694;9.476;2022-07-24T10:50:11;6.90;;;6.30;;
50012;SDS011;35901;48.694;9.476;2022-07-24T10:52:39;7.35;;;6.55;;
50012;SDS011;35901;48.694;9.476;2022-07-24T11:00:44;7.38;;;6.78;;
50012;SDS011;35901;48.694;9.476;2022-07-24T11:03:17;7.18;;;6.50;;
50012;SDS011;35901;48.694;9.476;2022-07-24T11:06:07;6.95;;;6.35;;
50012;SDS011;35901;48.694;9.476;2022-07-24T11:08:38;6.75;;;6.15;;
50012;SDS011;35901;48.694;9.476;2022-07-24T11:13:55;6.63;;;6.15;;
50012;SDS011;35901;48.694;9.476;2022-07-24T11:16:32;6.40;;;6.00;;
50012;SDS011;35901;48.694;9.476;2022-07-24T11:21:43;7.07;;;6.47;;
50012;SDS011;35901;48.694;9.476;2022-07-24T11:24:15;6.72;;;6.22;;
50012;SDS011;35901;48.694;9.476;2022-07-24T11:26:58;7.07;;;6.47;;
50012;SDS011;35901;48.694;9.476;2022-07-24T11:29:33;6.80;;;6.30;;
50012;SDS011;35901;48.694;9.476;2022-07-24T11:32:09;6.85;;;6.25;;
50012;SDS011;35901;48.694;9.476;2022-07-24T11:34:46;6.10;;;5.60;;
50012;SDS011;35901;48.694;9.476;2022-07-24T11:37:14;6.57;;;6.07;;
50012;SDS011;35901;48.694;9.476;2022-07-24T11:39:42;7.30;;;6.60;;
50012;SDS011;35901;48.694;9.476;2022-07-24T11:42:12;6.90;;;6.22;;
50012;SDS011;35901;48.694;9.476;2022-07-24T11:44:48;7.18;;;6.07;;
50012;SDS011;35901;48.694;9.476;2022-07-24T11:49:51;6.25;;;5.80;;
50012;SDS011;35901;48.694;9.476;2022-07-24T11:52:30;6.35;;;5.47;;
50012;SDS011;35901;48.694;9.476;2022-07-24T11:54:59;6.10;;;5.70;;
50012;SDS011;35901;48.694;9.476;2022-07-24T11:57:31;6.88;;;6.28;;
50012;SDS011;35901;48.694;9.476;2022-07-24T12:00:00;6.30;;;5.80;;
50012;SDS011;35901;48.694;9.476;2022-07-24T12:02:26;6.20;;;5.80;;
50012;SDS011;35901;48.694;9.476;2022-07-24T12:04:52;7.18;;;6.47;;
50012;SDS011;35901;48.694;9.476;2022-07-24T12:10:06;6.82;;;6.18;;
50012;SDS011;35901;48.694;9.476;2022-07-24T12:12:37;7.13;;;6.55;;
50012;SDS011;35901;48.694;9.476;2022-07-24T12:15:09;6.72;;;6.22;;
50012;SDS011;35901;48.694;9.476;2022-07-24T12:17:57;7.28;;;6.68;;
50012;SDS011;35901;48.694;9.476;2022-07-24T12:20:25;6.55;;;5.95;;
50012;SDS011;35901;48.694;9.476;2022-07-24T12:22:53;7.20;;;6.65;;
50012;SDS011;35901;48.694;9.476;2022-07-24T12:25:19;7.00;;;6.50;;
50012;SDS011;35901;48.694;9.476;2022-07-24T12:27:45;6.53;;;6.03;;
50012;SDS011;35901;48.694;9.476;2022-07-24T12:33:31;7.00;;;6.40;;
50012;SDS011;35901;48.694;9.476;2022-07-24T12:41:03;6.80;;;6.30;;
50012;SDS011;35901;48.694;9.476;2022-07-24T12:43:45;7.22;;;6.57;;
50012;SDS011;35901;48.694;9.476;2022-07-24T12:46:14;6.63;;;6.03;;
50012;SDS011;35901;48.694;9.476;2022-07-24T12:48:40;6.68;;;6.18;;
50012;SDS011;35901;48.694;9.476;2022-07-24T12:51:50;7.00;;;6.50;;
50012;SDS011;35901;48.694;9.476;2022-07-24T12:54:27;7.13;;;6.43;;
50012;SDS011;35901;48.694;9.476;2022-07-24T12:56:56;7.22;;;6.53;;
50012;SDS011;35901;48.694;9.476;2022-07-24T12:59:33;7.03;;;6.53;;
50012;SDS011;35901;48.694;9.476;2022-07-24T13:04:31;6.82;;;6.32;;
50012;SDS011;35901;48.694;9.476;2022-07-24T13:06:58;6.75;;;6.15;;
50012;SDS011;35901;48.694;9.476;2022-07-24T13:09:24;7.20;;;6.60;;
50012;SDS011;35901;48.694;9.476;2022-07-24T13:11:51;6.75;;;6.25;;
50012;SDS011;35901;48.694;9.476;2022-07-24T13:14:19;7.13;;;6.57;;
50012;SDS011;35901;48.694;9.476;2022-07-24T13:16:47;7.72;;;6.65;;
50012;SDS011;35901;48.694;9.476;2022-07-24T13:19:15;7.25;;;6.70;;
50012;SDS011;35901;48.694;9.476;2022-07-24T13:21:42;7.53;;;6.82;;
50012;SDS011;35901;48.694;9.476;2022-07-24T13:24:08;6.82;;;6.32;;
50012;SDS011;35901;48.694;9.476;2022-07-24T13:26:36;7.28;;;6.72;;
50012;SDS011;35901;48.694;9.476;2022-07-24T13:29:02;9.20;;;7.00;;
50012;SDS011;35901;48.694;9.476;2022-07-24T13:31:29;6.93;;;6.20;;
50012;SDS011;35901;48.694;9.476;2022-07-24T13:33:55;7.15;;;6.65;;
50012;SDS011;35901;48.694;9.476;2022-07-24T13:36:20;7.15;;;6.60;;
50012;SDS011;35901;48.694;9.476;2022-07-24T13:38:46;7.10;;;6.60;;
50012;SDS011;35901;48.694;9.476;2022-07-24T13:41:12;7.20;;;6.50;;
50012;SDS011;35901;48.694;9.476;2022-07-24T13:43:39;7.53;;;6.90;;
50012;SDS011;35901;48.694;9.476;2022-07-24T13:46:05;6.72;;;6.22;;
50012;SDS011;35901;48.694;9.476;2022-07-24T13:48:32;6.75;;;6.32;;
50012;SDS011;35901;48.694;9.476;2022-07-24T13:50:57;7.10;;;6.40;;
50012;SDS011;35901;48.694;9.476;2022-07-24T13:53:23;6.75;;;6.20;;
50012;SDS011;35901;48.694;9.476;2022-07-24T13:55:49;7.35;;;6.75;;
50012;SDS011;35901;48.694;9.476;2022-07-24T13:58:15;7.18;;;6.47;;
50012;SDS011;35901;48.694;9.476;2022-07-24T14:00:41;7.30;;;6.68;;
50012;SDS011;35901;48.694;9.476;2022-07-24T14:03:07;7.18;;;6.47;;
50012;SDS011;35901;48.694;9.476;2022-07-24T14:05:33;6.60;;;6.10;;
50012;SDS011;35901;48.694;9.476;2022-07-24T14:07:59;6.47;;;5.88;;
50012;SDS011;35901;48.694;9.476;2022-07-24T14:10:25;7.70;;;6.90;;
50012;SDS011;35901;48.694;9.476;2022-07-24T14:12:51;6.60;;;6.10;;
50012;SDS011;35901;48.694;9.476;2022-07-24T14:15:16;7.28;;;6.68;;
50012;SDS011;35901;48.694;9.476;2022-07-24T14:17:43;7.68;;;6.97;;
50012;SDS011;35901;48.694;9.476;2022-07-24T14:20:09;7.18;;;6.50;;
50012;SDS011;35901;48.694;9.476;2022-07-24T14:22:37;6.82;;;6.32;;
50012;SDS011;35901;48.694;9.476;2022-07-24T14:25:04;7.25;;;6.60;;
50012;SDS011;35901;48.694;9.476;2022-07-24T14:27:31;6.88;;;6.30;;
50012;SDS011;35901;48.694;9.476;2022-07-24T14:29:58;6.93;;;6.38;;
50012;SDS011;35901;48.694;9.476;2022-07-24T14:32:24;6.85;;;6.28;;
50012;SDS011;35901;48.694;9.476;2022-07-24T14:34:49;7.30;;;6.60;;
50012;SDS011;35901;48.694;9.476;2022-07-24T14:37:15;6.75;;;6.15;;
50012;SDS011;35901;48.694;9.476;2022-07-24T14:39:41;7.25;;;6.75;;
50012;SDS011;35901;48.694;9.476;2022-07-24T14:42:07;6.60;;;6.00;;
50012;SDS011;35901;48.694;9.476;2022-07-24T14:44:33;7.40;;;6.75;;
50012;SDS011;35901;48.694;9.476;2022-07-24T14:46:59;7.60;;;6.90;;
50012;SDS011;35901;48.694;9.476;2022-07-24T14:49:26;8.10;;;7.40;;
50012;SDS011;35901;48.694;9.476;2022-07-24T14:51:52;7.07;;;6.57;;
50012;SDS011;35901;48.694;9.476;2022-07-24T14:54:18;7.25;;;6.65;;
50012;SDS011;35901;48.694;9.476;2022-07-24T14:56:44;7.43;;;6.88;;
50012;SDS011;35901;48.694;9.476;2022-07-24T14:59:09;7.30;;;6.60;;
50012;SDS011;35901;48.694;9.476;2022-07-24T15:01:35;7.22;;;6.60;;
50012;SDS011;35901;48.694;9.476;2022-07-24T15:04:01;7.00;;;6.40;;
50012;SDS011;35901;48.694;9.476;2022-07-24T15:06:27;6.47;;;6.07;;
50012;SDS011;35901;48.694;9.476;2022-07-24T15:08:53;7.53;;;6.93;;
50012;SDS011;35901;48.694;9.476;2022-07-24T15:11:19;7.45;;;6.78;;
50012;SDS011;35901;48.694;9.476;2022-07-24T15:13:47;7.13;;;6.60;;
50012;SDS011;35901;48.694;9.476;2022-07-24T15:16:13;6.60;;;6.10;;
50012;SDS011;35901;48.694;9.476;2022-07-24T15:18:39;7.45;;;6.88;;
50012;SDS011;35901;48.694;9.476;2022-07-24T15:21:07;7.15;;;6.55;;
50012;SDS011;35901;48.694;9.476;2022-07-24T15:23:33;6.90;;;6.30;;